Ponce, PR

12:27 PM AST on August 31, 2015 (GMT -0400)
City | | Change Station
CLOSE
Current Station
Personal Weather Station
Location: Ponce, PR
Elevation: 36 ft
Nearby Weather Stations

Elev 36 ft 18.00 °N, 66.64 °W | Updated 2 seconds ago

Partly Cloudy
Partly Cloudy
89.8 °F
Feels Like 102 °F
N
7.6
Wind Variable Wind from SSE
Gusts 17.4 mph

Today
High -- | Low -- °F
--% Chance of Precip.
Yesterday
High -- | Low -- °F
Precip. -- in
6:11 AM 6:41 PM
Waning Gibbous, 95% visible
Pressure 30.00 in
Visibility 10.0 miles
Clouds Few 2500 ft
Heat Index 102 °F
Dew Point 76 °F
Humidity 64%
Rainfall 0.00 in
Snow Depth Not available.
UV 11 out of 12
Pollen Not available.
Air Quality Not available.
Flu Activity Not available.
METAR TJPS 311550Z 14010KT 10SM FEW025 33/24 A3000
Pressure 30.00 in
Visibility 10.0 miles
Clouds Few 2500 ft
Heat Index 102 °F
Dew Point 76 °F
Humidity 64%
Rainfall 0.00 in
Snow Depth Not available.
UV 11 out of 12
Pollen Not available.
Air Quality Not available.
Flu Activity Not available.
METAR TJPS 311550Z 14010KT 10SM FEW025 33/24 A3000

10-Day Weather Forecast

×

Almanac

Astronomy

Aug. 31, 2015 Rise Set
Actual Time
Civil Twilight
Nautical Twilight
Astronomical Twilight
Moon
Length of Visible Light
Length of Day
Tomorrow will be .
, % of the Moon is Illuminated

Today's Extremes

State Highs State Lows

Community

WunderPhotos

Upload Photos

1,851,302 photos uploaded!

WunderBlogs® & News

Nearby

Air Quality

  Air Quality AQ Index Pollutant
Not available.

Snow Depth

Station Depth Elevation

Earthquake Activity

City Distance Mag. Time & Date
Minimum magnitude displayed is 2.5.

Coastal Water Temperatures

Place Temperature

Stations

Nearby Weather Stations

Station Location Temp. Windchill Dew Point Humidity Wind Precip. Elev Updated Type